Magna, Utah
Current Conditions -  °F | °C
As of 5:53 AM on Wednesday 22 Oct 2014 (Local Time) from KSLC Reporting Station
Clear Clear  
Wind Chill: 37°   Ceiling: Unl
Heat Index: 41°   Visibility: 10mi
Dew Point: 34°   Wind: 6mph
Humidity: 76%   Direction: 150°SSE
Pressure: 30.15"   Gusts: NA
Location:  40.7°N, 112.09°W
Report Text: KSLC 221153Z 15005KT 10SM CLR 05/01 A3015 RMK AO2 SLP191 T00500011 10078 20044 53010
Loading
Personal Weather Stations






























Interactive Weather Map
Tropical Storm Tracking
New forecast layout! Learn more

10-Day Weather Forecast

Advertisements
Track Severe Weather on mobile